TSN weather

Public forecast

Using degrees Celsius for public forecast. Weather courtesy of forecast.io.

Current aviation weather report (METAR) for Tianjin Binhai International Airport

Retrieved 2020/08/15 07:00 UTC (7 minutes ago):

ZBTJ 150700Z 09002MPS 060V120 9999 FEW010 25/23 Q1004 NOSIG

Aviation forecast (TAF) for Tianjin Binhai International Airport

Retrieved 2020/08/15 06:02 UTC (1 hour ago):

TAF ZBTJ 150306Z 1506/1606 03003MPS 5000 HZ NSC TX28/1509Z TN23/1521Z BECMG 1517/1518 2500 BR BECMG 1522/1523 5000 HZ